Time;durP1;ratioP1;P1;durP2;ratioP2;P2;SDS_P1;SDS_P2;PMS_P1;PMS_P2;Temp;Humidity;BMP_temperature;BMP_pressure;BME280_temperature;BME280_humidity;BME280_pressure;Samples;Min_cycle;Max_cycle;Signal;HPM_P1;HPM_P2
2020/12/05 00:00:22;;;;;;;50.60;28.42;;;;;;;4.34;60.06;101919.16;1818214;79;21512;-77
2020/12/05 00:02:50;;;;;;;55.20;28.30;;;;;;;4.41;59.93;101905.95;1817988;79;22996;-78
2020/12/05 00:05:18;;;;;;;46.13;26.97;;;;;;;4.44;59.86;101908.42;1817566;79;21128;-77
2020/12/05 00:07:46;;;;;;;45.80;25.27;;;;;;;4.46;59.83;101905.70;1817429;79;22325;-77
2020/12/05 00:10:14;;;;;;;46.25;25.97;;;;;;;4.47;59.79;101905.61;1817409;78;21572;-77
2020/12/05 00:12:42;;;;;;;44.23;23.22;;;;;;;4.51;59.62;101907.16;1817330;79;21119;-77
2020/12/05 00:15:09;;;;;;;40.98;20.30;;;;;;;4.51;59.52;101911.62;1817355;79;21120;-76
2020/12/05 00:17:37;;;;;;;46.00;25.27;;;;;;;4.44;59.52;101914.20;1817333;79;21069;-77
2020/12/05 00:20:05;;;;;;;48.58;24.60;;;;;;;4.34;59.56;101909.87;1818198;79;22210;-77
2020/12/05 00:22:34;;;;;;;48.13;26.30;;;;;;;4.31;59.65;101914.00;1818181;79;21064;-77
2020/12/05 00:25:02;;;;;;;42.45;22.52;;;;;;;4.33;59.66;101921.42;1818064;79;21242;-80
2020/12/05 00:27:31;;;;;;;51.08;24.77;;;;;;;4.33;59.68;101917.45;1818283;79;21496;-79
2020/12/05 00:29:59;;;;;;;53.13;28.62;;;;;;;4.36;59.63;101917.73;1818129;79;21081;-76
2020/12/05 00:32:28;;;;;;;58.95;29.57;;;;;;;4.35;59.63;101910.25;1818179;79;21431;-76
2020/12/05 00:34:56;;;;;;;45.88;22.62;;;;;;;4.35;59.70;101915.55;1818169;79;21508;-77
2020/12/05 00:37:29;;;;;;;43.75;20.92;;;;;;;4.38;59.63;101912.75;1818011;79;21065;-77
2020/12/05 00:39:58;;;;;;;44.80;20.05;;;;;;;4.40;59.54;101913.98;1818153;78;21053;-77
2020/12/05 00:42:26;;;;;;;45.92;22.07;;;;;;;4.37;59.47;101925.63;1819028;79;21461;-78
2020/12/05 00:44:54;;;;;;;44.10;23.50;;;;;;;4.26;59.65;101916.05;1820337;79;21309;-78
2020/12/05 00:47:22;;;;;;;62.13;32.10;;;;;;;4.19;59.74;101918.18;1819650;79;21073;-76
2020/12/05 00:49:49;;;;;;;54.00;26.80;;;;;;;4.13;59.92;101921.61;1818770;79;21551;-78
2020/12/05 00:52:17;;;;;;;43.70;20.05;;;;;;;4.10;60.12;101920.47;1789820;79;21048;-79
2020/12/05 00:54:45;;;;;;;55.73;27.02;;;;;;;4.17;60.18;101921.84;1757640;80;21227;-79
2020/12/05 00:57:13;;;;;;;64.58;30.52;;;;;;;4.18;60.23;101922.22;1785802;80;21371;-78
2020/12/05 00:59:42;;;;;;;62.27;29.75;;;;;;;4.25;60.21;101923.62;1785720;79;21116;-78
2020/12/05 01:02:10;;;;;;;60.45;28.80;;;;;;;4.37;60.08;101934.91;1785933;79;21536;-78
2020/12/05 01:04:38;;;;;;;63.28;30.02;;;;;;;4.44;59.86;101934.10;1785895;80;21532;-78
2020/12/05 01:07:06;;;;;;;55.35;25.85;;;;;;;4.52;59.66;101928.77;1786018;79;21178;-78
2020/12/05 01:09:35;;;;;;;59.45;27.10;;;;;;;4.52;59.46;101929.24;1785915;79;21086;-78
2020/12/05 01:12:03;;;;;;;48.15;23.55;;;;;;;4.46;59.48;101933.09;1785953;80;21504;-78
2020/12/05 01:14:31;;;;;;;63.08;27.65;;;;;;;4.40;59.50;101932.08;1785988;79;21072;-78
2020/12/05 01:16:59;;;;;;;59.35;28.85;;;;;;;4.33;59.60;101939.52;1785925;80;21096;-78
2020/12/05 01:19:27;;;;;;;56.13;25.25;;;;;;;4.23;59.87;101937.45;1757626;80;21053;-78
2020/12/05 01:21:55;;;;;;;68.20;29.42;;;;;;;4.23;59.88;101936.13;1785983;80;22215;-77
2020/12/05 01:24:23;;;;;;;60.58;27.00;;;;;;;4.19;60.00;101938.08;1785818;80;21520;-77
2020/12/05 01:26:51;;;;;;;68.45;30.88;;;;;;;4.27;60.06;101937.20;1785848;80;21081;-77
2020/12/05 01:29:18;;;;;;;73.25;31.05;;;;;;;4.36;60.00;101938.95;1785920;79;21508;-78
2020/12/05 01:31:49;;;;;;;95.32;39.85;;;;;;;4.42;59.90;101932.87;1785927;79;21072;-76
2020/12/05 01:34:16;;;;;;;80.38;33.73;;;;;;;4.43;59.86;101939.88;1785373;79;22598;-76
2020/12/05 01:36:45;;;;;;;67.58;29.82;;;;;;;4.40;59.86;101934.73;1785920;80;21084;-78
2020/12/05 01:39:13;;;;;;;73.42;32.53;;;;;;;4.44;59.83;101931.45;1786138;79;21068;-77
2020/12/05 01:41:41;;;;;;;74.82;33.70;;;;;;;4.44;59.79;101932.77;1787994;79;21065;-78
2020/12/05 01:44:09;;;;;;;77.45;32.98;;;;;;;4.40;59.63;101944.02;1814263;79;21107;-78
2020/12/05 01:46:39;;;;;;;62.73;25.95;;;;;;;4.30;59.74;101938.82;1797332;79;21549;-77
2020/12/05 01:49:07;;;;;;;84.00;37.58;;;;;;;4.33;59.80;101941.31;1811201;78;21124;-77
2020/12/05 01:51:36;;;;;;;73.12;30.32;;;;;;;4.24;59.96;101940.01;1807499;79;21078;-77
2020/12/05 01:54:04;;;;;;;87.33;37.73;;;;;;;4.32;59.90;101948.90;1800299;78;21068;-77
2020/12/05 01:56:32;;;;;;;101.78;37.98;;;;;;;4.29;59.90;101952.55;1805235;79;21066;-77
2020/12/05 01:59:01;;;;;;;73.50;29.23;;;;;;;4.23;60.01;101953.36;1807311;79;21329;-77
2020/12/05 02:01:29;;;;;;;84.37;37.40;;;;;;;4.17;60.13;101947.89;1808623;79;21553;-77
2020/12/05 02:04:01;;;;;;;85.72;37.55;;;;;;;4.18;60.22;101950.06;1807555;79;21094;-77
2020/12/05 02:07:20;;;;;;;94.45;37.75;;;;;;;4.19;60.22;101958.44;1811650;79;21060;-79
2020/12/05 02:09:51;;;;;;;88.05;37.93;;;;;;;4.17;60.31;101961.62;1808953;79;21066;-78
2020/12/05 02:12:50;;;;;;;68.57;27.25;;;;;;;4.17;60.36;101955.84;1808361;78;22337;-78
2020/12/05 02:15:24;;;;;;;71.40;27.90;;;;;;;4.17;60.40;101962.94;1807314;79;21551;-79
2020/12/05 02:18:05;;;;;;;82.57;32.23;;;;;;;4.16;60.39;101963.89;1807025;79;21077;-79
2020/12/05 02:20:35;;;;;;;114.55;42.05;;;;;;;4.17;60.40;101960.29;1807205;79;21085;-79
2020/12/05 02:23:16;;;;;;;86.35;32.35;;;;;;;4.16;60.33;101963.41;1807179;79;21049;-79
2020/12/05 02:25:49;;;;;;;73.65;27.00;;;;;;;4.12;60.36;101959.67;1788646;80;21596;-79
2020/12/05 02:28:18;;;;;;;64.05;23.70;;;;;;;4.08;60.38;101961.16;1807659;79;21115;-79
2020/12/05 02:30:47;;;;;;;74.20;29.98;;;;;;;4.06;60.41;101958.21;1804812;79;21500;-78
2020/12/05 02:33:15;;;;;;;91.75;32.48;;;;;;;4.02;60.50;101961.48;1806546;79;21482;-77
2020/12/05 02:35:43;;;;;;;73.05;27.90;;;;;;;4.00;60.50;101957.21;1793289;80;21093;-77
2020/12/05 02:38:23;;;;;;;96.60;37.60;;;;;;;3.98;60.56;101964.38;1801571;79;21436;-77
2020/12/05 02:40:51;;;;;;;92.82;38.17;;;;;;;3.97;60.59;101958.22;1793454;80;21453;-78
2020/12/05 02:43:19;;;;;;;118.62;44.23;;;;;;;3.97;60.67;101957.36;1808579;79;21078;-78
2020/12/05 02:45:47;;;;;;;106.75;40.05;;;;;;;4.03;60.62;101955.23;1804576;79;21058;-78
2020/12/05 02:48:15;;;;;;;92.70;35.52;;;;;;;4.10;60.58;101950.48;1763957;80;21040;-77
2020/12/05 02:50:43;;;;;;;106.43;37.73;;;;;;;4.16;60.45;101950.62;1808409;79;22220;-80
2020/12/05 02:53:10;;;;;;;96.53;36.10;;;;;;;4.15;60.44;101951.58;1804712;79;21080;-79
2020/12/05 02:55:38;;;;;;;112.40;38.53;;;;;;;4.19;60.45;101949.16;1806682;79;21101;-78
2020/12/05 02:58:06;;;;;;;113.60;40.03;;;;;;;4.25;60.43;101956.77;1789288;80;21054;-78
2020/12/05 03:00:34;;;;;;;127.75;43.90;;;;;;;4.28;60.43;101952.17;1809378;79;21083;-78
2020/12/05 03:03:02;;;;;;;139.68;50.67;;;;;;;4.33;60.36;101948.80;1793569;80;22078;-79
2020/12/05 03:05:30;;;;;;;109.80;39.33;;;;;;;4.36;60.33;101941.61;1807912;79;21101;-78
2020/12/05 03:07:58;;;;;;;91.57;35.25;;;;;;;4.40;60.27;101953.30;1812246;79;21069;-78
2020/12/05 03:10:26;;;;;;;127.72;45.30;;;;;;;4.48;60.20;101948.92;1808024;79;21074;-78
2020/12/05 03:12:53;;;;;;;140.68;52.27;;;;;;;4.47;60.15;101965.31;1805991;79;21078;-78
2020/12/05 03:15:21;;;;;;;114.28;37.53;;;;;;;4.43;60.20;101955.80;1806026;78;21372;-79
2020/12/05 03:17:49;;;;;;;116.47;41.85;;;;;;;4.39;60.25;101952.92;1793393;80;21089;-79
2020/12/05 03:20:17;;;;;;;122.30;42.95;;;;;;;4.36;60.37;101958.41;1805400;79;21507;-78
2020/12/05 03:22:47;;;;;;;135.60;49.67;;;;;;;4.35;60.45;101951.84;1807350;79;21526;-79
2020/12/05 03:25:15;;;;;;;114.08;41.35;;;;;;;4.40;60.51;101961.73;1801909;79;21062;-78
2020/12/05 03:27:43;;;;;;;115.55;38.48;;;;;;;4.45;60.45;101957.03;1799631;79;21392;-77
2020/12/05 03:30:11;;;;;;;96.08;34.58;;;;;;;4.42;60.41;101956.75;1799619;78;21089;-77
2020/12/05 03:32:39;;;;;;;113.90;40.40;;;;;;;4.39;60.40;101964.86;1799697;79;21076;-78
2020/12/05 03:35:06;;;;;;;119.57;41.45;;;;;;;4.33;60.48;101969.17;1799671;79;21054;-78
2020/12/05 03:37:35;;;;;;;110.50;36.80;;;;;;;4.29;60.57;101967.62;1799310;79;21058;-79
2020/12/05 03:40:04;;;;;;;89.45;29.57;;;;;;;4.33;60.56;101965.19;1799057;78;21369;-79
2020/12/05 03:42:32;;;;;;;94.60;31.68;;;;;;;4.30;60.58;101966.67;1799628;78;21105;-79
2020/12/05 03:45:00;;;;;;;97.80;34.35;;;;;;;4.26;60.66;101969.09;1799500;79;21125;-79
2020/12/05 03:47:28;;;;;;;103.95;40.38;;;;;;;4.26;60.77;101969.09;1798968;79;21110;-78
2020/12/05 03:49:58;;;;;;;136.12;52.48;;;;;;;4.27;60.80;101966.82;1799341;79;21062;-78
2020/12/05 03:52:26;;;;;;;102.45;38.25;;;;;;;4.31;60.82;101965.28;1799754;79;21464;-78
2020/12/05 03:54:54;;;;;;;117.90;47.93;;;;;;;4.39;60.72;101966.19;1799071;79;21109;-79
2020/12/05 03:57:22;;;;;;;118.90;45.92;;;;;;;4.44;60.65;101967.27;1799637;79;21073;-78
2020/12/05 03:59:49;;;;;;;134.03;48.95;;;;;;;4.48;60.56;101968.81;1799660;79;21106;-78
2020/12/05 04:02:17;;;;;;;113.03;40.00;;;;;;;4.46;60.60;101967.58;1799809;78;21157;-78
2020/12/05 04:04:45;;;;;;;134.25;46.02;;;;;;;4.51;60.56;101964.22;1799704;79;22204;-78
2020/12/05 04:07:13;;;;;;;105.87;37.28;;;;;;;4.50;60.49;101969.14;1799617;79;21077;-79
2020/12/05 04:09:42;;;;;;;132.82;45.58;;;;;;;4.49;60.58;101962.56;1799758;79;21073;-78
2020/12/05 04:12:09;;;;;;;125.62;44.20;;;;;;;4.47;60.66;101970.62;1799611;79;21528;-78
2020/12/05 04:14:37;;;;;;;138.57;43.98;;;;;;;4.52;60.70;101963.27;1799712;79;21504;-78
2020/12/05 04:17:06;;;;;;;142.87;46.50;;;;;;;4.61;60.64;101969.88;1799576;79;21197;-78
2020/12/05 04:19:34;;;;;;;103.83;32.28;;;;;;;4.65;60.57;101963.47;1799526;79;21069;-78
2020/12/05 04:22:02;;;;;;;120.77;39.88;;;;;;;4.75;60.43;101967.33;1799497;79;21070;-78
2020/12/05 04:24:29;;;;;;;110.03;37.60;;;;;;;4.78;60.34;101976.94;1799089;78;21082;-78
2020/12/05 04:26:58;;;;;;;133.03;47.33;;;;;;;4.89;60.23;101974.53;1798543;79;21085;-77
2020/12/05 04:29:26;;;;;;;124.15;44.25;;;;;;;4.93;60.07;101974.75;1798676;79;21388;-78
2020/12/05 04:31:53;;;;;;;132.60;44.53;;;;;;;4.93;59.99;101980.06;1798287;79;21117;-78
2020/12/05 04:34:21;;;;;;;126.75;41.35;;;;;;;4.88;59.99;101982.13;1798262;79;21581;-77
2020/12/05 04:36:49;;;;;;;109.78;41.20;;;;;;;4.83;60.04;101982.84;1798726;79;21125;-80
2020/12/05 04:39:17;;;;;;;114.03;42.48;;;;;;;4.82;59.99;101979.34;1798714;79;21098;-77
2020/12/05 04:41:45;;;;;;;112.85;44.77;;;;;;;4.84;60.00;101976.59;1799645;77;21317;-78
2020/12/05 04:44:13;;;;;;;117.22;48.35;;;;;;;4.85;60.00;101987.59;1801506;77;21112;-77
2020/12/05 04:46:41;;;;;;;120.00;49.03;;;;;;;4.81;59.93;101988.69;1773786;79;21108;-77
2020/12/05 04:49:09;;;;;;;98.27;46.58;;;;;;;4.73;60.00;101990.94;1777722;79;21057;-79
2020/12/05 04:51:38;;;;;;;86.82;37.88;;;;;;;4.71;60.09;101978.20;1813362;77;21071;-77
2020/12/05 04:54:06;;;;;;;86.60;39.65;;;;;;;4.74;60.07;101985.53;1787554;77;21360;-77
2020/12/05 04:56:38;;;;;;;92.65;41.55;;;;;;;4.75;60.05;101979.75;1788332;79;21085;-78
2020/12/05 04:59:07;;;;;;;88.52;38.00;;;;;;;4.73;60.04;101984.30;1818273;79;21053;-77
2020/12/05 05:01:36;;;;;;;61.77;26.82;;;;;;;4.70;59.99;101977.81;1803355;79;21091;-77
2020/12/05 05:04:05;;;;;;;71.15;31.12;;;;;;;4.65;60.01;101979.39;1785992;77;21076;-76
2020/12/05 05:06:33;;;;;;;63.92;26.73;;;;;;;4.62;60.01;101976.04;1785448;80;21347;-76
2020/12/05 05:09:03;;;;;;;85.05;35.28;;;;;;;4.61;60.07;101982.30;1784143;80;21120;-76
2020/12/05 05:11:31;;;;;;;74.50;31.97;;;;;;;4.56;60.08;101983.39;1787587;79;21571;-76
2020/12/05 05:14:15;;;;;;;65.00;27.40;;;;;;;4.52;60.12;101979.66;1811469;79;21559;-76
2020/12/05 05:16:43;;;;;;;49.53;21.62;;;;;;;4.49;60.20;101979.81;1816639;79;21104;-76
2020/12/05 05:19:21;;;;;;;71.72;30.80;;;;;;;4.48;60.24;101981.61;1816727;79;22321;-77
2020/12/05 05:21:51;;;;;;;65.80;30.08;;;;;;;4.45;60.28;101979.14;1816475;79;37429;-78
2020/12/05 05:24:20;;;;;;;71.33;31.80;;;;;;;4.44;60.43;101976.55;1816892;78;21100;-78
2020/12/05 05:27:07;;;;;;;77.22;34.60;;;;;;;4.45;60.45;101983.13;1816887;79;21112;-77
2020/12/05 05:29:39;;;;;;;94.07;37.42;;;;;;;4.47;60.42;101979.91;1817073;78;21204;-77
2020/12/05 05:32:17;;;;;;;98.50;44.85;;;;;;;4.45;60.49;101987.11;1817406;78;22210;-78
2020/12/05 05:34:43;;;;;;;102.97;44.63;;;;;;;4.47;60.49;101998.95;1817914;78;21104;-76
2020/12/05 05:37:14;;;;;;;107.95;46.75;;;;;;;4.43;60.53;101997.39;1818147;79;21056;-77
2020/12/05 05:39:51;;;;;;;96.60;41.00;;;;;;;4.39;60.61;101999.34;1817705;79;21104;-76
2020/12/05 05:42:29;;;;;;;87.62;41.58;;;;;;;4.36;60.67;101992.02;1818623;79;21088;-76
2020/12/05 05:45:25;;;;;;;83.17;37.40;;;;;;;4.34;60.77;101996.08;1818277;78;21360;-76
2020/12/05 05:48:02;;;;;;;101.50;46.08;;;;;;;4.33;60.85;101998.35;1816800;79;21109;-78
2020/12/05 05:50:35;;;;;;;107.67;50.10;;;;;;;4.34;60.96;101994.75;1791955;77;21124;-77
2020/12/05 05:53:11;;;;;;;112.83;50.78;;;;;;;4.44;60.95;101989.81;1784412;80;21099;-77
2020/12/05 05:55:48;;;;;;;109.97;50.85;;;;;;;4.49;60.87;101996.59;1783567;80;21099;-77
2020/12/05 05:58:19;;;;;;;88.60;42.48;;;;;;;4.68;60.55;102002.23;1791953;77;21455;-77
2020/12/05 06:00:49;;;;;;;85.45;40.15;;;;;;;4.68;60.55;102002.23;1790893;79;21100;-77
2020/12/05 06:03:27;;;;;;;51.58;26.05;;;;;;;4.73;60.56;101997.57;1809685;77;21656;-76
2020/12/05 06:06:00;;;;;;;79.32;37.40;;;;;;;4.79;60.46;102002.06;1790497;77;21104;-76
2020/12/05 06:08:29;;;;;;;77.72;35.23;;;;;;;4.83;60.37;102005.41;1813105;79;21077;-76
2020/12/05 06:11:00;;;;;;;57.85;27.35;;;;;;;4.85;60.23;102002.19;1816455;79;21365;-77
2020/12/05 06:13:30;;;;;;;60.75;32.35;;;;;;;4.87;60.17;102012.27;1816636;79;21108;-76
2020/12/05 06:15:59;;;;;;;86.37;43.63;;;;;;;4.87;60.12;102018.91;1816572;79;21126;-76
2020/12/05 06:18:27;;;;;;;88.95;44.35;;;;;;;4.93;59.97;102025.68;1816273;79;21093;-77
2020/12/05 06:20:56;;;;;;;72.70;34.75;;;;;;;4.93;59.96;102031.84;1804443;77;21080;-78
2020/12/05 06:23:43;;;;;;;80.70;40.48;;;;;;;4.89;59.98;102034.27;1797800;79;21921;-77
2020/12/05 06:26:15;;;;;;;70.87;38.58;;;;;;;4.89;59.95;102036.93;1784167;80;21137;-78
2020/12/05 06:28:44;;;;;;;66.62;36.90;;;;;;;4.94;59.93;102037.53;1755455;80;21104;-78
2020/12/05 06:31:13;;;;;;;74.87;42.17;;;;;;;5.01;59.84;102038.08;1792597;77;21124;-78
2020/12/05 06:33:45;;;;;;;68.47;35.45;;;;;;;5.01;59.81;102025.66;1816427;77;21108;-81
2020/12/05 06:36:33;;;;;;;52.15;28.27;;;;;;;5.05;59.72;102027.67;1813376;79;21355;-78
2020/12/05 06:39:18;;;;;;;;;;;;;;;5.12;59.59;102029.51;1809249;79;21559;-78
2020/12/05 06:41:51;;;;;;;31.35;17.50;;;;;;;5.09;59.32;102028.75;1816522;78;20212;-79
2020/12/05 06:44:35;;;;;;;27.77;14.28;;;;;;;5.02;59.01;102028.69;1815931;79;21100;-78
2020/12/05 06:47:06;;;;;;;40.65;24.87;;;;;;;4.95;58.90;102041.93;1815749;79;21112;-78
2020/12/05 06:49:44;;;;;;;30.17;16.35;;;;;;;4.87;58.97;102053.42;1815261;79;22185;-78
2020/12/05 06:52:31;;;;;;;35.33;18.32;;;;;;;4.87;59.00;102053.91;1792860;79;21080;-77
2020/12/05 06:55:07;;;;;;;36.23;21.40;;;;;;;4.86;59.04;102054.81;1816167;79;21100;-79
2020/12/05 06:57:36;;;;;;;28.62;16.90;;;;;;;4.80;59.06;102062.64;1816646;79;21080;-78
2020/12/05 07:00:23;;;;;;;52.70;29.55;;;;;;;4.81;59.09;102045.77;1805707;77;21085;-77
2020/12/05 07:02:58;;;;;;;32.85;19.15;;;;;;;4.84;58.93;102042.96;1785029;80;24594;-77
2020/12/05 07:05:45;;;;;;;42.90;24.63;;;;;;;4.80;58.91;102045.39;1785942;79;21092;-77
2020/12/05 07:08:26;;;;;;;46.95;24.27;;;;;;;4.72;58.75;102040.95;1824520;78;21402;-77
2020/12/05 07:11:15;;;;;;;47.43;26.48;;;;;;;4.66;58.88;102052.77;1824706;78;21109;-77
2020/12/05 07:13:50;;;;;;;65.08;32.17;;;;;;;4.69;58.91;102055.27;1813893;78;21089;-76
2020/12/05 07:16:25;;;;;;;56.25;25.00;;;;;;;4.74;58.87;102051.03;1800286;78;21354;-77
2020/12/05 07:19:00;;;;;;;47.75;23.27;;;;;;;4.78;58.81;102051.27;1804018;79;21132;-78
2020/12/05 07:21:29;;;;;;;41.60;24.45;;;;;;;4.79;58.82;102053.83;1825326;78;21083;-78
2020/12/05 07:23:57;;;;;;;45.08;25.57;;;;;;;4.79;58.87;102054.30;1826635;78;21077;-78
2020/12/05 07:26:24;;;;;;;51.73;28.55;;;;;;;4.85;58.81;102048.66;1826311;78;21082;-77
2020/12/05 07:28:56;;;;;;;39.53;20.72;;;;;;;4.90;58.68;102045.27;1826374;78;22246;-78
2020/12/05 07:31:24;;;;;;;33.90;18.07;;;;;;;4.94;58.51;102045.50;1826140;78;21098;-77
2020/12/05 07:33:52;;;;;;;42.33;22.75;;;;;;;4.95;58.22;102063.17;1791212;78;21548;-79
2020/12/05 07:36:20;;;;;;;54.95;31.50;;;;;;;4.93;58.17;102051.76;1814507;78;21088;-80
2020/12/05 07:38:49;;;;;;;58.70;33.55;;;;;;;4.92;58.05;102047.39;1792831;80;21124;-77
2020/12/05 07:41:20;;;;;;;38.45;20.10;;;;;;;4.92;58.05;102050.52;1792940;80;21272;-78
2020/12/05 07:43:48;;;;;;;46.18;24.52;;;;;;;4.86;57.94;102062.34;1792157;80;21607;-78
2020/12/05 07:46:16;;;;;;;41.58;21.85;;;;;;;4.75;57.96;102060.23;1792614;80;21422;-80
2020/12/05 07:48:44;;;;;;;42.43;23.02;;;;;;;4.70;58.03;102060.95;1792766;80;21085;-80
2020/12/05 07:51:15;;;;;;;36.83;21.10;;;;;;;4.67;58.15;102064.23;1793119;80;21093;-80
2020/12/05 07:53:44;;;;;;;43.85;26.45;;;;;;;4.63;58.10;102070.63;1793053;79;21998;-76
2020/12/05 07:56:16;;;;;;;54.67;30.23;;;;;;;4.60;58.21;102063.71;1793444;80;21108;-78
2020/12/05 07:58:56;;;;;;;44.73;23.50;;;;;;;4.61;58.15;102076.51;1792501;79;21038;-80
2020/12/05 08:01:38;;;;;;;34.88;18.67;;;;;;;4.60;58.20;102078.78;1794210;80;21032;-78
2020/12/05 08:04:36;;;;;;;54.35;29.57;;;;;;;4.61;58.16;102077.83;1793703;80;21162;-78
2020/12/05 08:07:25;;;;;;;37.38;20.82;;;;;;;4.55;58.14;102071.05;1804423;77;21327;-77
2020/12/05 08:09:53;;;;;;;38.55;21.35;;;;;;;4.55;58.29;102079.88;1805200;78;21065;-80
2020/12/05 08:12:47;;;;;;;39.63;22.48;;;;;;;4.50;58.25;102075.75;1805739;78;21198;-78
2020/12/05 08:15:20;;;;;;;45.08;27.00;;;;;;;4.56;58.30;102081.58;1782191;78;21537;-78
2020/12/05 08:17:48;;;;;;;53.45;27.52;;;;;;;4.63;58.30;102082.10;1816899;79;21618;-79
2020/12/05 08:20:16;;;;;;;49.20;28.07;;;;;;;4.70;58.14;102073.38;1814246;79;21370;-78
2020/12/05 08:22:44;;;;;;;58.15;32.15;;;;;;;4.73;57.99;102075.40;1780747;79;21124;-79
2020/12/05 08:25:12;;;;;;;43.65;25.43;;;;;;;4.81;57.97;102074.97;1788517;79;21583;-76
2020/12/05 08:27:40;;;;;;;58.87;30.95;;;;;;;4.88;57.75;102083.48;1793587;79;21219;-77
2020/12/05 08:30:08;;;;;;;29.85;16.35;;;;;;;4.90;57.69;102084.25;1783764;80;21099;-77
2020/12/05 08:32:36;;;;;;;34.23;20.23;;;;;;;4.91;57.52;102088.64;1782546;79;21362;-80
2020/12/05 08:35:09;;;;;;;40.67;22.58;;;;;;;4.86;57.52;102080.92;1821088;78;21109;-79
2020/12/05 08:37:44;;;;;;;34.48;20.12;;;;;;;4.87;57.61;102084.44;1833037;78;21085;-79
2020/12/05 08:40:17;;;;;;;33.10;19.67;;;;;;;4.88;57.56;102071.54;1833049;78;21086;-78
2020/12/05 08:42:48;;;;;;;42.10;23.90;;;;;;;4.91;57.45;102068.26;1832352;78;21070;-79
2020/12/05 08:45:20;;;;;;;45.33;26.17;;;;;;;4.88;57.56;102065.75;1832788;78;21118;-78
2020/12/05 08:47:51;;;;;;;52.03;26.57;;;;;;;4.87;57.56;102068.03;1833286;78;21097;-78
2020/12/05 08:50:29;;;;;;;41.45;28.15;;;;;;;4.89;57.48;102067.47;1808742;79;21124;-80
2020/12/05 08:53:05;;;;;;;41.63;27.58;;;;;;;4.92;57.44;102080.59;1777996;79;23442;-78
2020/12/05 08:55:33;;;;;;;87.15;53.02;;;;;;;4.84;57.48;102077.47;1695026;84;21189;-78
2020/12/05 08:58:04;;;;;;;66.97;40.45;;;;;;;4.81;57.52;102078.95;1703202;82;21197;-79
2020/12/05 09:00:34;;;;;;;63.78;37.35;;;;;;;4.81;57.48;102083.83;1704013;82;21571;-78
2020/12/05 09:03:02;;;;;;;64.70;36.25;;;;;;;4.80;57.50;102081.23;1701613;82;21226;-78
2020/12/05 09:05:30;;;;;;;41.63;22.95;;;;;;;4.82;57.47;102081.55;1705340;82;21208;-78
2020/12/05 09:08:03;;;;;;;46.15;27.48;;;;;;;4.87;57.39;102080.45;1709338;82;21234;-80
2020/12/05 09:10:31;;;;;;;47.05;25.57;;;;;;;4.91;57.40;102078.02;1704485;82;21524;-79
2020/12/05 09:13:06;;;;;;;52.23;29.20;;;;;;;5.03;57.30;102084.84;1699933;82;22243;-81
2020/12/05 09:15:35;;;;;;;39.15;20.88;;;;;;;5.13;57.23;102077.70;1704161;82;21201;-80
2020/12/05 09:18:03;;;;;;;33.13;20.25;;;;;;;5.20;56.98;102085.26;1701845;82;21709;-79
2020/12/05 09:20:32;;;;;;;47.67;24.37;;;;;;;5.25;56.89;102077.04;1708118;82;21232;-79
2020/12/05 09:23:01;;;;;;;35.70;19.80;;;;;;;5.25;56.85;102078.36;1700552;82;21703;-80
2020/12/05 09:25:38;;;;;;;33.65;18.37;;;;;;;5.25;56.73;102077.04;1710505;82;21204;-79
2020/12/05 09:28:14;;;;;;;43.03;22.37;;;;;;;5.22;56.59;102079.41;1703383;82;21166;-78
2020/12/05 09:30:42;;;;;;;39.85;22.93;;;;;;;5.18;56.72;102085.83;1702507;82;21830;-81
2020/12/05 09:33:20;;;;;;;37.45;21.42;;;;;;;5.26;56.72;102084.06;1697033;82;21238;-79
2020/12/05 09:35:48;;;;;;;41.95;20.95;;;;;;;5.30;56.67;102086.47;1702064;84;22326;-80
2020/12/05 09:38:17;;;;;;;36.85;20.23;;;;;;;5.37;56.51;102085.67;1700894;84;21212;-79
2020/12/05 09:40:45;;;;;;;32.85;18.55;;;;;;;5.38;56.41;102087.37;1701110;82;21197;-79
2020/12/05 09:43:13;;;;;;;30.17;17.85;;;;;;;5.40;56.37;102081.49;1705810;82;21570;-80
2020/12/05 09:45:41;;;;;;;35.20;19.75;;;;;;;5.48;56.30;102083.73;1710108;82;21177;-79
2020/12/05 09:48:09;;;;;;;40.65;23.73;;;;;;;5.52;56.04;102082.62;1701343;84;21216;-80
2020/12/05 09:50:37;;;;;;;36.25;19.57;;;;;;;5.45;56.00;102080.80;1701953;84;21216;-78
2020/12/05 09:53:04;;;;;;;31.60;18.87;;;;;;;5.38;56.00;102078.08;1702596;82;21432;-80
2020/12/05 09:55:32;;;;;;;28.27;17.23;;;;;;;5.34;56.05;102075.20;1709033;82;21742;-79
2020/12/05 09:58:00;;;;;;;31.73;18.48;;;;;;;5.36;56.10;102077.32;1736592;82;22252;-78
2020/12/05 10:00:28;;;;;;;26.97;15.23;;;;;;;5.38;56.05;102083.87;1736797;82;21441;-79
2020/12/05 10:02:57;;;;;;;23.27;14.30;;;;;;;5.33;55.97;102082.32;1736570;82;21205;-81
2020/12/05 10:05:27;;;;;;;23.15;12.73;;;;;;;5.29;56.09;102087.89;1714714;82;21206;-82
2020/12/05 10:07:56;;;;;;;25.20;15.28;;;;;;;5.30;56.12;102071.85;1701051;84;21201;-83
2020/12/05 10:10:25;;;;;;;32.42;18.15;;;;;;;5.28;56.12;102076.88;1701494;84;21999;-80
2020/12/05 10:12:54;;;;;;;33.18;19.10;;;;;;;5.26;56.11;102070.78;1701617;84;21220;-80
2020/12/05 10:15:23;;;;;;;36.35;24.37;;;;;;;5.24;56.20;102076.66;1703182;82;21948;-83
2020/12/05 10:17:52;;;;;;;29.23;18.67;;;;;;;5.21;56.25;102090.09;1704723;82;21210;-80
2020/12/05 10:20:20;;;;;;;32.08;20.32;;;;;;;5.18;56.31;102076.97;1711269;83;21239;-80
2020/12/05 10:22:48;;;;;;;21.77;13.65;;;;;;;5.23;56.36;102069.64;1722150;82;21617;-80
2020/12/05 10:25:15;;;;;;;26.70;15.48;;;;;;;5.29;56.26;102082.58;1701366;82;21471;-81
2020/12/05 10:27:43;;;;;;;28.00;15.70;;;;;;;5.29;56.09;102087.89;1702014;84;21179;-81
2020/12/05 10:30:11;;;;;;;25.25;12.50;;;;;;;5.20;56.15;102084.41;1718831;82;21209;-82
2020/12/05 10:32:39;;;;;;;29.37;16.65;;;;;;;5.10;56.27;102082.72;1702843;82;21225;-79
2020/12/05 10:35:09;;;;;;;25.75;15.00;;;;;;;5.10;56.31;102092.02;1712594;82;21170;-78
2020/12/05 10:37:37;;;;;;;24.87;14.58;;;;;;;5.09;56.34;102087.18;1736488;82;21428;-77
2020/12/05 10:40:05;;;;;;;26.90;14.45;;;;;;;5.13;56.35;102086.99;1721722;82;21223;-80
2020/12/05 10:42:33;;;;;;;23.15;14.20;;;;;;;5.11;56.23;102084.44;1738714;82;21156;-79
2020/12/05 10:45:01;;;;;;;24.57;14.55;;;;;;;5.04;56.29;102085.25;1733770;82;21236;-80
2020/12/05 10:47:30;;;;;;;31.07;17.82;;;;;;;5.03;56.45;102076.87;1703322;84;21671;-81
2020/12/05 10:49:57;;;;;;;33.08;20.35;;;;;;;5.04;56.53;102082.59;1703891;82;21389;-79
2020/12/05 10:52:25;;;;;;;59.23;35.17;;;;;;;5.06;56.48;102079.37;1701993;82;21203;-79
2020/12/05 10:54:53;;;;;;;46.05;25.92;;;;;;;5.03;56.51;102080.00;1707794;82;21569;-80
2020/12/05 10:57:21;;;;;;;41.18;21.95;;;;;;;5.00;56.51;102078.38;1706457;82;21442;-79
2020/12/05 10:59:49;;;;;;;27.35;14.65;;;;;;;4.98;56.44;102074.94;1703764;82;21220;-79
2020/12/05 11:02:17;;;;;;;38.60;20.57;;;;;;;4.96;56.57;102076.83;1698658;82;22970;-80
2020/12/05 11:04:45;;;;;;;47.70;23.92;;;;;;;4.83;56.53;102078.42;1704220;82;21466;-81
2020/12/05 11:07:13;;;;;;;51.83;28.87;;;;;;;4.73;56.81;102078.53;1708995;82;21204;-78
2020/12/05 11:09:42;;;;;;;53.80;31.77;;;;;;;4.71;56.92;102076.41;1707588;82;22449;-78
2020/12/05 11:12:10;;;;;;;50.45;29.18;;;;;;;4.72;56.97;102066.17;1708012;82;21196;-78
2020/12/05 11:14:38;;;;;;;60.78;34.35;;;;;;;4.76;56.96;102069.91;1713318;82;21243;-78
2020/12/05 11:17:06;;;;;;;56.70;29.92;;;;;;;4.82;56.98;102074.06;1702623;82;21259;-79
2020/12/05 11:19:34;;;;;;;63.33;30.40;;;;;;;4.89;56.81;102066.13;1701661;82;21647;-78
2020/12/05 11:22:02;;;;;;;47.58;22.98;;;;;;;4.87;56.79;102066.70;1700357;82;21192;-79
2020/12/05 11:24:30;;;;;;;61.95;31.05;;;;;;;4.90;56.80;102065.19;1700641;84;21233;-78
2020/12/05 11:26:58;;;;;;;60.83;25.43;;;;;;;4.90;56.78;102058.55;1700346;84;21286;-77
2020/12/05 11:29:26;;;;;;;61.10;26.35;;;;;;;4.90;56.83;102059.88;1701084;84;21288;-77
2020/12/05 11:31:55;;;;;;;48.70;22.27;;;;;;;4.81;56.90;102055.95;1700351;84;21200;-80